createdAt,value
2019-05-20T00:01:00.887Z,98960.61
2019-05-20T00:03:29.782Z,98958.91
2019-05-20T00:05:58.536Z,98959.84
2019-05-20T00:08:26.223Z,98961.31
2019-05-20T00:10:53.996Z,98958.84
2019-05-20T00:13:21.718Z,98961.95
2019-05-20T00:15:50.175Z,98958.67
2019-05-20T00:18:17.985Z,98966.63
2019-05-20T00:20:45.758Z,98953.16
2019-05-20T00:23:13.475Z,98948.69
2019-05-20T00:25:41.222Z,98944.80
2019-05-20T00:28:08.967Z,98948.64
2019-05-20T00:30:36.761Z,98938.62
2019-05-20T00:33:04.448Z,98936.88
2019-05-20T00:35:32.284Z,98942.89
2019-05-20T00:37:59.967Z,98945.16
2019-05-20T00:40:27.866Z,98948.26
2019-05-20T00:42:55.618Z,98953.73
2019-05-20T00:45:23.489Z,98944.08
2019-05-20T00:47:51.319Z,98942.67
2019-05-20T00:50:19.255Z,98947.11
2019-05-20T00:52:47.007Z,98941.75
2019-05-20T00:55:23.537Z,98937.67
2019-05-20T00:57:51.404Z,98943.81
2019-05-20T01:00:19.329Z,98947.22
2019-05-20T01:02:56.439Z,98946.84
2019-05-20T01:05:17.014Z,98952.08
2019-05-20T01:07:44.934Z,98944.49
2019-05-20T01:10:13.936Z,98941.95
2019-05-20T01:12:41.730Z,98956.45
2019-05-20T01:15:10.379Z,98952.87
2019-05-20T01:17:38.387Z,98934.42
2019-05-20T01:20:06.310Z,98941.09
2019-05-20T01:22:34.110Z,98939.95
2019-05-20T01:25:02.072Z,98937.11
2019-05-20T01:27:29.876Z,98937.11
2019-05-20T01:29:57.583Z,98931.50
2019-05-20T01:32:25.348Z,98931.50
2019-05-20T01:34:53.058Z,98927.63
2019-05-20T01:37:20.828Z,98925.68
2019-05-20T01:39:48.658Z,98930.41
2019-05-20T01:42:16.556Z,98923.55
2019-05-20T01:44:44.346Z,98919.97
2019-05-20T01:47:12.137Z,98922.03
2019-05-20T01:49:39.860Z,98928.09
2019-05-20T01:52:07.646Z,98919.17
2019-05-20T01:54:35.447Z,98913.23
2019-05-20T01:57:03.318Z,98920.62
2019-05-20T01:59:31.116Z,98918.67
2019-05-20T02:01:59.032Z,98890.59
2019-05-20T02:04:26.847Z,98890.59
2019-05-20T02:06:54.625Z,98891.81
2019-05-20T02:09:22.349Z,98886.91
2019-05-20T02:11:50.140Z,98886.91
2019-05-20T02:14:21.433Z,98887.86
2019-05-20T02:16:49.202Z,98874.72
2019-05-20T02:19:16.938Z,98878.94
2019-05-20T02:21:44.679Z,98878.33
2019-05-20T02:24:12.338Z,98882.59
2019-05-20T02:26:40.252Z,98886.72
2019-05-20T02:29:07.983Z,98886.75
2019-05-20T02:31:35.724Z,98882.48
2019-05-20T02:34:03.543Z,98879.22
2019-05-20T02:36:31.257Z,98879.74
2019-05-20T02:38:59.024Z,98874.91
2019-05-20T02:41:27.277Z,98867.33
2019-05-20T02:43:55.024Z,98870.72
2019-05-20T02:46:23.017Z,98870.33
2019-05-20T02:48:50.788Z,98866.45
2019-05-20T02:51:30.315Z,98860.70
2019-05-20T02:54:00.597Z,98863.97
2019-05-20T02:56:28.504Z,98872.40
2019-05-20T02:58:56.562Z,98862.05
2019-05-20T03:01:24.615Z,98868.52
2019-05-20T03:04:09.998Z,98869.84
2019-05-20T03:06:22.249Z,98871.40
2019-05-20T03:08:50.101Z,98872.42
2019-05-20T03:11:18.814Z,98865.54
2019-05-20T03:13:46.605Z,98853.86
2019-05-20T03:16:15.737Z,98840.95
2019-05-20T03:18:44.786Z,98850.70
2019-05-20T03:21:12.627Z,98858.69
2019-05-20T03:23:40.490Z,98848.53
2019-05-20T03:26:08.358Z,98846.59
2019-05-20T03:28:36.154Z,98840.45
2019-05-20T03:31:04.285Z,98830.30
2019-05-20T03:33:32.019Z,98821.19
2019-05-20T03:35:59.962Z,98813.39
2019-05-20T03:38:28.218Z,98818.72
2019-05-20T03:40:55.903Z,98818.11
2019-05-20T03:43:24.790Z,98819.74
2019-05-20T03:45:52.582Z,98819.74
2019-05-20T03:48:20.431Z,98823.02
2019-05-20T03:50:48.145Z,98824.24
2019-05-20T03:53:15.940Z,98829.46
2019-05-20T03:55:44.343Z,98829.46
2019-05-20T03:58:13.695Z,98826.69
2019-05-20T04:00:46.782Z,98826.69
2019-05-20T04:03:15.650Z,98820.41
2019-05-20T04:05:43.899Z,98820.41
2019-05-20T04:08:11.949Z,98808.42
2019-05-20T04:10:39.822Z,98821.86
2019-05-20T04:13:08.431Z,98825.02
2019-05-20T04:15:36.243Z,98828.02
2019-05-20T04:18:04.647Z,98826.05
2019-05-20T04:20:32.561Z,98818.66
2019-05-20T04:23:00.413Z,98820.72
2019-05-20T04:25:28.239Z,98819.58
2019-05-20T04:27:56.089Z,98811.05
2019-05-20T04:30:23.850Z,98808.56
2019-05-20T04:32:51.738Z,98811.23
2019-05-20T04:35:22.965Z,98798.02
2019-05-20T04:37:49.728Z,98809.90
2019-05-20T04:40:17.673Z,98809.41
2019-05-20T04:42:45.425Z,98800.15
2019-05-20T04:45:15.098Z,98800.28
2019-05-20T04:47:43.858Z,98793.57
2019-05-20T04:50:11.762Z,98785.86
2019-05-20T04:52:39.585Z,98777.31
2019-05-20T04:55:08.232Z,98772.16
2019-05-20T04:57:36.059Z,98752.92
2019-05-20T05:00:05.209Z,98745.09
2019-05-20T05:02:32.928Z,98747.03
2019-05-20T05:05:00.711Z,98746.59
2019-05-20T05:07:28.545Z,98749.14
2019-05-20T05:09:56.421Z,98735.67
2019-05-20T05:12:24.383Z,98741.77
2019-05-20T05:14:52.278Z,98743.57
2019-05-20T05:17:20.210Z,98743.57
2019-05-20T05:19:48.081Z,98753.31
2019-05-20T05:22:16.010Z,98763.69
2019-05-20T05:24:44.106Z,98762.95
2019-05-20T05:27:11.928Z,98756.39
2019-05-20T05:29:39.705Z,98755.48
2019-05-20T05:32:07.630Z,98755.38
2019-05-20T05:34:35.509Z,98748.47
2019-05-20T05:37:03.779Z,98754.36
2019-05-20T05:39:31.797Z,98756.50
2019-05-20T05:42:00.483Z,98767.92
2019-05-20T05:44:28.278Z,98767.92
2019-05-20T05:46:56.059Z,98763.02
2019-05-20T05:49:23.838Z,98759.98
2019-05-20T05:51:51.581Z,98759.98
2019-05-20T05:54:19.335Z,98757.75
2019-05-20T05:56:47.052Z,98751.78
2019-05-20T05:59:15.020Z,98753.41
2019-05-20T06:01:42.877Z,98750.73
2019-05-20T06:04:10.760Z,98737.44
2019-05-20T06:06:38.504Z,98731.13
2019-05-20T06:09:07.214Z,98720.69
2019-05-20T06:11:35.043Z,98707.05
2019-05-20T06:14:02.920Z,98691.83
2019-05-20T06:16:36.540Z,98705.04
2019-05-20T06:19:00.458Z,98713.35
2019-05-20T06:21:28.200Z,98707.41
2019-05-20T06:23:55.962Z,98697.92
2019-05-20T06:26:23.650Z,98690.93
2019-05-20T06:28:51.418Z,98686.22
2019-05-20T06:31:19.218Z,98697.30
2019-05-20T06:33:46.911Z,98707.25
2019-05-20T06:36:26.363Z,98701.45
2019-05-20T06:39:04.945Z,98696.27
2019-05-20T06:41:32.651Z,98708.44
2019-05-20T06:44:00.495Z,98713.95
2019-05-20T06:46:28.289Z,98704.78
2019-05-20T06:48:56.006Z,98707.24
2019-05-20T06:51:23.789Z,98703.95
2019-05-20T06:53:51.543Z,98710.19
2019-05-20T06:56:19.556Z,98694.56
2019-05-20T06:58:47.404Z,98694.56
2019-05-20T07:01:15.180Z,98688.91
2019-05-20T07:03:42.924Z,98697.95
2019-05-20T07:06:10.770Z,98701.67
2019-05-20T07:08:39.199Z,98698.70
2019-05-20T07:11:07.892Z,98706.28
2019-05-20T07:13:35.627Z,98702.31
2019-05-20T07:16:03.533Z,98706.33
2019-05-20T07:18:31.433Z,98706.63
2019-05-20T07:20:59.255Z,98709.22
2019-05-20T07:23:27.116Z,98702.56
2019-05-20T07:25:54.870Z,98707.80
2019-05-20T07:28:22.587Z,98708.22
2019-05-20T07:30:50.379Z,98714.20
2019-05-20T07:33:18.667Z,98707.17
2019-05-20T07:35:46.506Z,98707.13
2019-05-20T07:38:14.224Z,98715.66
2019-05-20T07:40:42.696Z,98726.20
2019-05-20T07:43:10.838Z,98710.44
2019-05-20T07:45:39.239Z,98720.39
2019-05-20T07:48:07.123Z,98726.33
2019-05-20T07:50:37.725Z,98728.67
2019-05-20T07:53:06.750Z,98728.45
2019-05-20T07:55:39.751Z,98719.81
2019-05-20T07:58:08.789Z,98716.39
2019-05-20T08:00:37.831Z,98712.20
2019-05-20T08:03:05.663Z,98712.36
2019-05-20T08:05:33.717Z,98703.45
2019-05-20T08:08:01.718Z,98695.75
2019-05-20T08:10:29.704Z,98705.03
2019-05-20T08:12:57.689Z,98707.81
2019-05-20T08:15:26.068Z,98699.77
2019-05-20T08:17:55.036Z,98706.11
2019-05-20T08:20:23.039Z,98703.39
2019-05-20T08:22:50.817Z,98698.33
2019-05-20T08:25:18.779Z,98701.05
2019-05-20T08:27:46.693Z,98705.65
2019-05-20T08:30:15.298Z,98704.13
2019-05-20T08:32:43.075Z,98703.04
2019-05-20T08:35:11.215Z,98698.58
2019-05-20T08:37:45.559Z,98695.52
2019-05-20T08:40:09.247Z,98689.86
2019-05-20T08:42:37.122Z,98687.09
2019-05-20T08:45:05.463Z,98690.83
2019-05-20T08:47:34.398Z,98694.05
2019-05-20T08:50:04.883Z,98704.79
2019-05-20T08:52:32.286Z,98717.27
2019-05-20T08:55:00.024Z,98713.63
2019-05-20T08:57:27.922Z,98702.95
2019-05-20T08:59:55.668Z,98701.66
2019-05-20T09:02:23.395Z,98711.80
2019-05-20T09:04:51.223Z,98715.86
2019-05-20T09:07:19.116Z,98719.27
2019-05-20T09:09:46.836Z,98723.91
2019-05-20T09:12:14.623Z,98727.57
2019-05-20T09:14:42.432Z,98721.27
2019-05-20T09:17:11.452Z,98721.09
2019-05-20T09:19:39.429Z,98726.59
2019-05-20T09:22:07.209Z,98729.20
2019-05-20T09:24:35.092Z,98734.27
2019-05-20T09:27:03.300Z,98727.50
2019-05-20T09:29:31.047Z,98733.19
2019-05-20T09:31:59.105Z,98738.55
2019-05-20T09:34:27.652Z,98739.70
2019-05-20T09:36:55.556Z,98747.59
2019-05-20T09:39:23.355Z,98745.72
2019-05-20T09:41:51.131Z,98743.61
2019-05-20T09:44:18.912Z,98753.05
2019-05-20T09:46:46.874Z,98753.70
2019-05-20T09:49:15.097Z,98758.95
2019-05-20T09:51:43.348Z,98763.27
2019-05-20T09:54:11.159Z,98774.98
2019-05-20T09:56:39.182Z,98777.29
2019-05-20T09:59:07.762Z,98769.42
2019-05-20T10:01:39.542Z,98776.86
2019-05-20T10:04:05.356Z,98775.09
2019-05-20T10:06:33.157Z,98762.56
2019-05-20T10:09:00.911Z,98766.90
2019-05-20T10:11:28.796Z,98767.30
2019-05-20T10:13:56.651Z,98764.42
2019-05-20T10:16:24.448Z,98765.34
2019-05-20T10:18:55.430Z,98764.60
2019-05-20T10:21:22.831Z,98764.88
2019-05-20T10:23:50.784Z,98776.30
2019-05-20T10:26:18.728Z,98774.37
2019-05-20T10:28:47.656Z,98773.23
2019-05-20T10:31:15.655Z,98789.09
2019-05-20T10:33:43.392Z,98791.73
2019-05-20T10:36:11.110Z,98784.61
2019-05-20T10:38:56.841Z,98782.52
2019-05-20T10:41:10.825Z,98788.43
2019-05-20T10:43:38.654Z,98777.55
2019-05-20T10:46:06.565Z,98776.89
2019-05-20T10:48:34.398Z,98781.25
2019-05-20T10:51:02.229Z,98785.02
2019-05-20T10:53:30.048Z,98799.65
2019-05-20T10:55:58.520Z,98793.30
2019-05-20T10:58:26.882Z,98800.16
2019-05-20T11:01:02.277Z,98805.47
2019-05-20T11:03:24.395Z,98810.16
2019-05-20T11:05:52.201Z,98826.55
2019-05-20T11:08:20.865Z,98833.39
2019-05-20T11:10:48.582Z,98841.97
2019-05-20T11:13:16.738Z,98841.95
2019-05-20T11:15:44.600Z,98836.80
2019-05-20T11:18:12.459Z,98838.14
2019-05-20T11:20:40.151Z,98834.37
2019-05-20T11:23:07.886Z,98830.78
2019-05-20T11:25:35.648Z,98842.69
2019-05-20T11:28:03.644Z,98850.55
2019-05-20T11:30:31.461Z,98853.85
2019-05-20T11:33:00.021Z,98868.75
2019-05-20T11:35:28.036Z,98865.19
2019-05-20T11:37:55.844Z,98866.11
2019-05-20T11:40:24.051Z,98874.94
2019-05-20T11:42:52.892Z,98883.72
2019-05-20T11:45:22.394Z,98885.26
2019-05-20T11:47:50.242Z,98886.88
2019-05-20T11:50:18.381Z,98886.14
2019-05-20T11:52:46.195Z,98881.25
2019-05-20T11:55:14.220Z,98894.33
2019-05-20T11:57:42.008Z,98896.13
2019-05-20T12:00:11.126Z,98894.78
2019-05-20T12:02:39.069Z,98906.15
2019-05-20T12:05:07.220Z,98909.44
2019-05-20T12:07:34.998Z,98905.17
2019-05-20T12:10:03.583Z,98902.80
2019-05-20T12:12:31.328Z,98903.66
2019-05-20T12:14:59.204Z,98895.96
2019-05-20T12:17:26.966Z,98894.77
2019-05-20T12:19:54.708Z,98895.63
2019-05-20T12:22:22.454Z,98898.55
2019-05-20T12:24:51.774Z,98883.13
2019-05-20T12:27:19.827Z,98886.64
2019-05-20T12:29:47.630Z,98882.63
2019-05-20T12:32:15.425Z,98891.36
2019-05-20T12:34:43.384Z,98890.08
2019-05-20T12:37:11.231Z,98895.61
2019-05-20T12:39:39.139Z,98898.59
2019-05-20T12:42:07.240Z,98897.16
2019-05-20T12:44:34.994Z,98896.06
2019-05-20T12:47:02.695Z,98889.11
2019-05-20T12:49:30.833Z,98888.99
2019-05-20T12:51:58.671Z,98898.06
2019-05-20T12:54:26.650Z,98900.72
2019-05-20T12:56:54.362Z,98898.50
2019-05-20T12:59:22.127Z,98898.57
2019-05-20T13:01:49.836Z,98896.70
2019-05-20T13:04:18.210Z,98901.19
2019-05-20T13:06:45.951Z,98893.18
2019-05-20T13:09:13.807Z,98897.00
2019-05-20T13:11:41.537Z,98887.01
2019-05-20T13:14:10.176Z,98894.76
2019-05-20T13:16:37.864Z,98893.61
2019-05-20T13:19:05.742Z,98896.39
2019-05-20T13:21:33.545Z,98896.30
2019-05-20T13:24:01.388Z,98894.08
2019-05-20T13:26:29.050Z,98902.02
2019-05-20T13:28:59.696Z,98896.13
2019-05-20T13:31:26.577Z,98898.64
2019-05-20T13:33:54.387Z,98900.45
2019-05-20T13:36:22.370Z,98906.78
2019-05-20T13:38:50.571Z,98904.67
2019-05-20T13:41:18.278Z,98913.75
2019-05-20T13:43:46.141Z,98892.95
2019-05-20T13:46:14.080Z,98887.19
2019-05-20T13:48:41.886Z,98889.33
2019-05-20T13:51:10.684Z,98883.92
2019-05-20T13:53:38.619Z,98882.55
2019-05-20T13:56:06.411Z,98878.77
2019-05-20T13:58:34.437Z,98882.48
2019-05-20T14:01:02.285Z,98880.72
2019-05-20T14:03:30.080Z,98874.16
2019-05-20T14:05:57.878Z,98870.14
2019-05-20T14:08:25.583Z,98874.85
2019-05-20T14:11:03.599Z,98861.91
2019-05-20T14:13:27.352Z,98863.84
2019-05-20T14:15:56.425Z,98852.30
2019-05-20T14:18:26.080Z,98861.64
2019-05-20T14:20:55.037Z,98860.67
2019-05-20T14:23:22.854Z,98859.05
2019-05-20T14:25:50.959Z,98870.05
2019-05-20T14:28:18.827Z,98865.45
2019-05-20T14:30:46.706Z,98873.86
2019-05-20T14:33:14.601Z,98869.39
2019-05-20T14:35:42.408Z,98858.34
2019-05-20T14:38:10.834Z,98868.91
2019-05-20T14:40:39.362Z,98871.42
2019-05-20T14:43:07.890Z,98861.45
2019-05-20T14:45:35.768Z,98858.89
2019-05-20T14:48:03.885Z,98863.77
2019-05-20T14:50:31.865Z,98848.61
2019-05-20T14:52:59.629Z,98856.14
2019-05-20T14:55:27.555Z,98852.38
2019-05-20T14:57:55.354Z,98846.77
2019-05-20T15:00:23.234Z,98839.31
2019-05-20T15:02:52.844Z,98837.47
2019-05-20T15:05:20.839Z,98842.89
2019-05-20T15:07:48.626Z,98843.75
2019-05-20T15:10:16.620Z,98845.41
2019-05-20T15:12:45.255Z,98847.29
2019-05-20T15:15:15.022Z,98849.45
2019-05-20T15:17:42.721Z,98854.34
2019-05-20T15:20:10.841Z,98852.16
2019-05-20T15:22:38.566Z,98849.21
2019-05-20T15:25:07.104Z,98852.23
2019-05-20T15:27:34.951Z,98847.63
2019-05-20T15:30:02.839Z,98852.15
2019-05-20T15:32:31.207Z,98843.20
2019-05-20T15:34:59.805Z,98844.04
2019-05-20T15:37:27.532Z,98841.60
2019-05-20T15:39:55.736Z,98847.30
2019-05-20T15:42:23.524Z,98848.10
2019-05-20T15:44:51.390Z,98833.52
2019-05-20T15:47:19.415Z,98837.55
2019-05-20T15:49:47.213Z,98834.84
2019-05-20T15:52:15.043Z,98835.09
2019-05-20T15:54:42.896Z,98834.74
2019-05-20T15:57:10.779Z,98836.42
2019-05-20T15:59:46.154Z,98850.69
2019-05-20T16:02:08.358Z,98858.88
2019-05-20T16:04:36.074Z,98852.08
2019-05-20T16:07:04.071Z,98865.59
2019-05-20T16:09:31.877Z,98863.18
2019-05-20T16:11:59.629Z,98862.70
2019-05-20T16:14:28.538Z,98859.73
2019-05-20T16:16:56.574Z,98864.59
2019-05-20T16:19:24.333Z,98869.46
2019-05-20T16:21:52.128Z,98872.45
2019-05-20T16:24:19.899Z,98877.87
2019-05-20T16:26:47.640Z,98884.97
2019-05-20T16:29:15.465Z,98883.28
2019-05-20T16:31:43.364Z,98876.77
2019-05-20T16:34:11.132Z,98878.16
2019-05-20T16:36:39.088Z,98878.48
2019-05-20T16:39:08.224Z,98878.20
2019-05-20T16:41:36.126Z,98877.66
2019-05-20T16:44:04.002Z,98872.16
2019-05-20T16:46:33.182Z,98873.53
2019-05-20T16:49:01.040Z,98867.24
2019-05-20T16:51:28.909Z,98865.66
2019-05-20T16:53:56.731Z,98853.23
2019-05-20T16:56:24.535Z,98854.30
2019-05-20T16:58:52.411Z,98851.91
2019-05-20T17:01:20.952Z,98852.42
2019-05-20T17:03:49.720Z,98853.00
2019-05-20T17:06:17.569Z,98855.16
2019-05-20T17:08:45.393Z,98853.80
2019-05-20T17:11:13.357Z,98865.44
2019-05-20T17:13:41.168Z,98862.62
2019-05-20T17:16:09.003Z,98864.23
2019-05-20T17:18:36.850Z,98855.59
2019-05-20T17:21:04.800Z,98858.84
2019-05-20T17:23:32.667Z,98851.17
2019-05-20T17:26:00.369Z,98843.95
2019-05-20T17:28:28.128Z,98843.77
2019-05-20T17:30:55.932Z,98838.38
2019-05-20T17:33:23.810Z,98833.22
2019-05-20T17:35:51.631Z,98835.58
2019-05-20T17:38:22.446Z,98836.63
2019-05-20T17:40:52.436Z,98836.47
2019-05-20T17:43:25.581Z,98845.30
2019-05-20T17:45:59.583Z,98847.74
2019-05-20T17:48:30.113Z,98851.11
2019-05-20T17:51:00.219Z,98846.79
2019-05-20T17:53:28.521Z,98841.08
2019-05-20T17:56:00.727Z,98846.70
2019-05-20T17:58:29.367Z,98846.15
2019-05-20T18:01:12.181Z,98844.77
2019-05-20T18:03:27.976Z,98851.27
2019-05-20T18:05:58.338Z,98846.58
2019-05-20T18:08:34.928Z,98853.23
2019-05-20T18:11:07.480Z,98847.33
2019-05-20T18:13:36.398Z,98857.75
2019-05-20T18:16:11.589Z,98857.14
2019-05-20T18:18:47.548Z,98865.84
2019-05-20T18:21:19.037Z,98870.16
2019-05-20T18:23:48.724Z,98872.47
2019-05-20T18:26:23.285Z,98874.03
2019-05-20T18:28:52.143Z,98880.09
2019-05-20T18:31:32.047Z,98884.42
2019-05-20T18:33:51.372Z,98899.80
2019-05-20T18:36:19.191Z,98895.16
2019-05-20T18:38:49.443Z,98906.50
2019-05-20T18:41:16.736Z,98905.03
2019-05-20T18:43:44.637Z,98912.17
2019-05-20T18:46:12.949Z,98919.11
2019-05-20T18:48:41.486Z,98920.59
2019-05-20T18:51:09.788Z,98922.48
2019-05-20T18:53:37.881Z,98934.45
2019-05-20T18:56:06.417Z,98936.97
2019-05-20T18:58:34.315Z,98932.88
2019-05-20T19:01:02.343Z,98933.64
2019-05-20T19:03:30.385Z,98929.13
2019-05-20T19:05:58.642Z,98928.47
2019-05-20T19:08:26.560Z,98928.88
2019-05-20T19:10:54.393Z,98925.95
2019-05-20T19:13:22.553Z,98928.97
2019-05-20T19:15:50.461Z,98926.44
2019-05-20T19:18:18.183Z,98921.86
2019-05-20T19:20:46.190Z,98923.36
2019-05-20T19:23:14.099Z,98918.27
2019-05-20T19:25:43.938Z,98907.89
2019-05-20T19:28:11.670Z,98910.00
2019-05-20T19:30:39.785Z,98905.88
2019-05-20T19:33:07.625Z,98904.54
2019-05-20T19:35:35.365Z,98901.79
2019-05-20T19:38:03.221Z,98891.28
2019-05-20T19:40:30.982Z,98903.47
2019-05-20T19:42:58.859Z,98891.02
2019-05-20T19:45:26.660Z,98886.96
2019-05-20T19:47:54.412Z,98885.47
2019-05-20T19:50:22.259Z,98878.66
2019-05-20T19:52:50.105Z,98880.77
2019-05-20T19:55:18.985Z,98887.55
2019-05-20T19:57:47.274Z,98883.20
2019-05-20T20:00:16.498Z,98891.99
2019-05-20T20:02:44.415Z,98891.77
2019-05-20T20:05:12.885Z,98894.63
2019-05-20T20:07:40.691Z,98896.84
2019-05-20T20:10:09.365Z,98898.87
2019-05-20T20:12:37.152Z,98901.44
2019-05-20T20:15:05.438Z,98899.47
2019-05-20T20:17:33.194Z,98897.86
2019-05-20T20:20:01.211Z,98897.95
2019-05-20T20:22:29.036Z,98902.52
2019-05-20T20:24:56.799Z,98896.28
2019-05-20T20:27:24.595Z,98894.45
2019-05-20T20:29:52.356Z,98888.84
2019-05-20T20:32:35.156Z,98891.18
2019-05-20T20:34:49.864Z,98891.59
2019-05-20T20:37:17.570Z,98888.75
2019-05-20T20:39:47.055Z,98889.30
2019-05-20T20:42:14.854Z,98897.72
2019-05-20T20:44:42.591Z,98903.25
2019-05-20T20:47:10.319Z,98902.09
2019-05-20T20:49:38.109Z,98902.37
2019-05-20T20:52:05.992Z,98911.27
2019-05-20T20:54:33.818Z,98912.20
2019-05-20T20:57:01.593Z,98910.20
2019-05-20T20:59:29.860Z,98916.31
2019-05-20T21:01:59.207Z,98923.06
2019-05-20T21:04:27.349Z,98920.92
2019-05-20T21:06:55.049Z,98916.06
2019-05-20T21:09:22.790Z,98924.47
2019-05-20T21:11:50.686Z,98917.80
2019-05-20T21:14:18.447Z,98923.16
2019-05-20T21:16:46.252Z,98924.22
2019-05-20T21:19:14.595Z,98925.41
2019-05-20T21:21:42.276Z,98918.72
2019-05-20T21:24:10.047Z,98917.19
2019-05-20T21:26:37.724Z,98924.53
2019-05-20T21:29:05.484Z,98922.44
2019-05-20T21:31:33.291Z,98923.27
2019-05-20T21:34:01.164Z,98927.59
2019-05-20T21:36:28.863Z,98924.31
2019-05-20T21:38:56.654Z,98922.89
2019-05-20T21:41:24.403Z,98921.95
2019-05-20T21:43:52.841Z,98915.46
2019-05-20T21:46:20.536Z,98911.84
2019-05-20T21:48:48.321Z,98916.44
2019-05-20T21:51:16.191Z,98917.88
2019-05-20T21:53:43.964Z,98912.38
2019-05-20T21:56:11.848Z,98911.33
2019-05-20T21:58:39.551Z,98911.33
2019-05-20T22:01:07.514Z,98914.00
2019-05-20T22:03:36.446Z,98904.79
2019-05-20T22:06:04.447Z,98912.73
2019-05-20T22:08:32.170Z,98908.06
2019-05-20T22:10:59.975Z,98906.87
2019-05-20T22:13:27.682Z,98905.38
2019-05-20T22:15:55.579Z,98905.58
2019-05-20T22:18:24.692Z,98904.63
2019-05-20T22:20:52.557Z,98902.98
2019-05-20T22:23:24.669Z,98903.49
2019-05-20T22:25:52.495Z,98904.20
2019-05-20T22:28:20.289Z,98911.03
2019-05-20T22:30:48.036Z,98909.34
2019-05-20T22:33:15.967Z,98904.33
2019-05-20T22:35:43.726Z,98913.03
2019-05-20T22:38:11.429Z,98906.69
2019-05-20T22:40:39.213Z,98907.97
2019-05-20T22:43:06.953Z,98906.03
2019-05-20T22:45:34.744Z,98896.31
2019-05-20T22:48:03.198Z,98900.17
2019-05-20T22:50:31.587Z,98902.78
2019-05-20T22:52:59.365Z,98901.05
2019-05-20T22:55:27.107Z,98898.94
2019-05-20T22:57:55.245Z,98910.30
2019-05-20T23:00:23.639Z,98902.92
2019-05-20T23:02:51.316Z,98907.06
2019-05-20T23:05:19.415Z,98910.09
2019-05-20T23:07:47.157Z,98909.39
2019-05-20T23:10:15.149Z,98896.47
2019-05-20T23:12:42.828Z,98894.83
2019-05-20T23:15:11.244Z,98889.32
2019-05-20T23:17:38.980Z,98887.08
2019-05-20T23:20:07.440Z,98886.17
2019-05-20T23:22:35.172Z,98887.34
2019-05-20T23:25:03.378Z,98886.94
2019-05-20T23:27:31.117Z,98881.92
2019-05-20T23:29:58.932Z,98889.55
2019-05-20T23:32:26.654Z,98888.05
2019-05-20T23:34:54.367Z,98895.95
2019-05-20T23:37:22.152Z,98889.10
2019-05-20T23:39:50.071Z,98882.32
2019-05-20T23:42:17.967Z,98881.84
2019-05-20T23:44:45.717Z,98881.84
2019-05-20T23:47:13.474Z,98882.80
2019-05-20T23:49:41.296Z,98872.55
2019-05-20T23:52:09.115Z,98876.67
2019-05-20T23:54:36.907Z,98877.91
2019-05-20T23:57:04.691Z,98874.86
2019-05-20T23:59:32.440Z,98870.98
